createdAt,value
2023-05-10T04:31:32.966Z,493.4615
2023-05-10T04:32:35.035Z,487.0000
2023-05-10T04:33:37.042Z,481.1538
2023-05-10T04:34:39.169Z,478.0769
2023-05-10T04:35:41.194Z,479.0769
2023-05-10T04:36:43.201Z,481.3077
2023-05-10T04:37:45.884Z,478.5385
2023-05-10T04:38:47.283Z,476.4615
2023-05-10T04:39:51.897Z,476.6923
2023-05-10T04:40:51.379Z,477.3333
2023-05-10T04:41:53.439Z,475.5385
2023-05-10T04:42:55.466Z,476.8462
2023-05-10T04:43:57.510Z,476.1538
2023-05-10T04:44:59.596Z,477.8462
2023-05-10T04:46:01.614Z,480.0000
2023-05-10T04:47:03.643Z,477.9231
2023-05-10T04:48:05.777Z,479.0769
2023-05-10T04:49:07.723Z,480.0000
2023-05-10T04:50:09.751Z,480.6154
2023-05-10T04:51:11.800Z,570.5385
2023-05-10T04:52:13.861Z,542.7692
2023-05-10T04:53:16.056Z,498.5385
2023-05-10T04:54:17.941Z,492.3077
2023-05-10T04:55:19.988Z,488.2308
2023-05-10T04:56:22.025Z,490.8462
2023-05-10T04:57:24.066Z,492.3077
2023-05-10T04:58:26.104Z,491.4615
2023-05-10T04:59:28.211Z,491.3077
2023-05-10T05:00:30.189Z,490.6923
2023-05-10T05:01:32.319Z,492.8462
2023-05-10T05:02:34.371Z,491.7692
2023-05-10T05:03:36.342Z,490.2308
2023-05-10T05:04:38.365Z,492.3077
2023-05-10T05:05:40.410Z,490.6923
2023-05-10T05:06:42.467Z,488.2308
2023-05-10T05:07:44.492Z,487.9231
2023-05-10T05:08:46.528Z,488.9231
2023-05-10T05:09:48.584Z,488.3846
2023-05-10T05:10:50.698Z,487.1538
2023-05-10T05:11:52.681Z,488.5385
2023-05-10T05:12:54.731Z,488.1538
2023-05-10T05:13:56.740Z,484.6154
2023-05-10T05:14:58.800Z,485.1538
2023-05-10T05:16:00.857Z,489.7692
2023-05-10T05:17:02.881Z,487.2308
2023-05-10T05:18:04.994Z,488.5385
2023-05-10T05:19:06.971Z,490.1538
2023-05-10T05:20:09.024Z,487.0769
2023-05-10T05:21:11.072Z,484.5385
2023-05-10T05:22:13.114Z,484.8462
2023-05-10T05:23:15.142Z,487.4615
2023-05-10T05:24:17.194Z,484.7692
2023-05-10T05:25:19.244Z,487.4615
2023-05-10T05:26:21.301Z,488.6923
2023-05-10T05:27:23.326Z,488.2308
2023-05-10T05:28:25.377Z,490.4615
2023-05-10T05:29:27.442Z,488.8462
2023-05-10T05:30:29.443Z,487.0769
2023-05-10T05:31:31.558Z,484.1538
2023-05-10T05:32:33.724Z,486.9231
2023-05-10T05:33:37.531Z,488.1538
2023-05-10T05:34:37.639Z,486.8333
2023-05-10T05:35:40.478Z,487.0769
2023-05-10T05:36:41.731Z,487.6923
2023-05-10T05:37:43.788Z,488.3077
2023-05-10T05:38:45.802Z,492.1538
2023-05-10T05:39:47.957Z,496.2308
2023-05-10T05:40:50.045Z,509.0769
2023-05-10T05:41:51.960Z,518.0000
2023-05-10T05:42:53.986Z,516.9231
2023-05-10T05:43:56.043Z,514.4615
2023-05-10T05:44:58.059Z,519.2308
2023-05-10T05:46:00.202Z,529.1539
2023-05-10T05:47:02.284Z,552.1539
2023-05-10T05:48:04.359Z,583.2308
2023-05-10T05:49:06.306Z,610.3077
2023-05-10T05:50:08.355Z,611.1539
2023-05-10T05:51:12.063Z,615.0769
2023-05-10T05:52:12.400Z,629.6923
2023-05-10T05:53:31.400Z,645.4615
2023-05-10T05:54:17.803Z,652.4000
2023-05-10T05:55:20.552Z,657.7692
2023-05-10T05:56:20.614Z,663.6667
2023-05-10T05:57:22.630Z,682.0000
2023-05-10T05:58:24.671Z,704.4615
2023-05-10T05:59:26.757Z,721.2308
2023-05-10T06:00:31.513Z,719.0000
2023-05-10T06:01:31.361Z,709.6923
2023-05-10T06:02:32.946Z,709.8461
2023-05-10T06:03:35.032Z,717.1539
2023-05-10T06:04:36.994Z,724.4615
2023-05-10T06:05:39.009Z,733.8461
2023-05-10T06:06:42.009Z,741.3846
2023-05-10T06:07:43.906Z,736.2308
2023-05-10T06:08:45.121Z,741.3846
2023-05-10T06:09:47.201Z,754.4615
2023-05-10T06:10:49.227Z,754.8461
2023-05-10T06:11:51.323Z,750.5385
2023-05-10T06:12:53.419Z,746.3846
2023-05-10T06:13:55.408Z,759.9231
2023-05-10T06:14:57.460Z,735.0000
2023-05-10T06:15:59.490Z,724.0000
2023-05-10T06:17:01.830Z,732.0769
2023-05-10T06:18:06.688Z,731.2308
2023-05-10T06:19:06.764Z,731.5833
2023-05-10T06:20:07.664Z,733.0833
2023-05-10T06:21:09.691Z,744.4615
2023-05-10T06:22:12.729Z,753.3846
2023-05-10T06:23:13.809Z,752.6923
2023-05-10T06:24:14.308Z,762.4167
2023-05-10T06:25:20.527Z,756.5385
2023-05-10T06:26:20.058Z,737.6667
2023-05-10T06:27:21.992Z,728.8461
2023-05-10T06:28:27.057Z,719.4615
2023-05-10T06:29:26.068Z,721.3846
2023-05-10T06:30:28.120Z,720.0769
2023-05-10T06:31:30.220Z,741.0000
2023-05-10T06:32:32.266Z,741.6923
2023-05-10T06:33:34.336Z,737.4615
2023-05-10T06:34:36.315Z,733.6923
2023-05-10T06:35:38.348Z,728.0769
2023-05-10T06:36:40.390Z,769.7692
2023-05-10T06:37:42.447Z,747.9231
2023-05-10T06:38:44.467Z,732.3846
2023-05-10T06:39:46.526Z,720.9231
2023-05-10T06:40:48.580Z,710.9231
2023-05-10T06:41:50.603Z,727.2308
2023-05-10T06:42:52.692Z,750.6923
2023-05-10T06:43:54.865Z,707.2308
2023-05-10T06:44:56.729Z,689.7692
2023-05-10T06:45:58.847Z,681.3077
2023-05-10T06:47:00.846Z,675.9231
2023-05-10T06:48:04.577Z,673.0000
2023-05-10T06:49:04.937Z,676.3077
2023-05-10T06:50:07.028Z,676.6923
2023-05-10T06:51:09.043Z,668.3077
2023-05-10T06:52:11.164Z,676.3846
2023-05-10T06:53:13.104Z,680.0000
2023-05-10T06:54:15.191Z,691.6923
2023-05-10T06:55:17.455Z,692.2308
2023-05-10T06:56:19.261Z,678.2308
2023-05-10T06:57:31.169Z,676.3077
2023-05-10T06:58:23.328Z,669.5385
2023-05-10T06:59:25.452Z,668.2308
2023-05-10T07:00:27.473Z,670.6923
2023-05-10T07:01:29.493Z,679.6923
2023-05-10T07:02:31.545Z,677.1539
2023-05-10T07:03:33.613Z,677.6923
2023-05-10T07:04:35.693Z,682.4615
2023-05-10T07:05:37.860Z,685.6923
2023-05-10T07:06:39.734Z,734.1539
2023-05-10T07:07:41.767Z,733.0769
2023-05-10T07:08:43.820Z,718.5385
2023-05-10T07:09:45.869Z,734.3846
2023-05-10T07:10:47.909Z,730.6923
2023-05-10T07:11:49.942Z,716.2308
2023-05-10T07:12:52.226Z,706.4615
2023-05-10T07:13:56.063Z,704.1667
2023-05-10T07:14:56.096Z,700.4167
2023-05-10T07:15:58.123Z,709.0000
2023-05-10T07:17:00.296Z,725.9231
2023-05-10T07:18:02.288Z,731.8461
2023-05-10T07:19:04.270Z,734.8461
2023-05-10T07:20:06.388Z,769.0000
2023-05-10T07:21:08.354Z,776.0769
2023-05-10T07:22:10.404Z,788.9231
2023-05-10T07:23:12.445Z,775.6923
2023-05-10T07:24:14.511Z,756.6923
2023-05-10T07:25:16.623Z,737.8461
2023-05-10T07:26:18.617Z,728.2308
2023-05-10T07:27:20.605Z,718.1539
2023-05-10T07:28:22.688Z,709.7692
2023-05-10T07:29:24.764Z,707.6923
2023-05-10T07:30:26.780Z,706.7692
2023-05-10T07:31:28.893Z,707.0769
2023-05-10T07:32:30.886Z,706.1539
2023-05-10T07:33:32.964Z,710.1539
2023-05-10T07:34:34.966Z,708.0769
2023-05-10T07:35:37.100Z,701.6923
2023-05-10T07:36:39.034Z,800.1539
2023-05-10T07:37:41.112Z,691.6923
2023-05-10T07:38:43.136Z,691.3077
2023-05-10T07:39:45.216Z,687.7692
2023-05-10T07:40:47.207Z,683.1539
2023-05-10T07:41:49.279Z,683.6923
2023-05-10T07:42:51.322Z,687.4615
2023-05-10T07:43:53.360Z,685.9231
2023-05-10T07:44:55.399Z,691.2308
2023-05-10T07:45:57.470Z,689.8461
2023-05-10T07:46:59.484Z,694.6154
2023-05-10T07:48:01.553Z,718.1539
2023-05-10T07:49:03.591Z,727.1539
2023-05-10T07:50:07.874Z,708.0000
2023-05-10T07:51:07.688Z,703.5833
2023-05-10T07:52:09.747Z,697.4615
2023-05-10T07:53:11.852Z,691.2308
2023-05-10T07:54:13.870Z,680.7692
2023-05-10T07:55:16.096Z,675.4615
2023-05-10T07:56:18.513Z,678.5385
2023-05-10T07:57:20.007Z,679.4615
2023-05-10T07:58:24.047Z,681.6923
2023-05-10T07:59:25.971Z,693.1539
2023-05-10T08:00:26.126Z,706.9231
2023-05-10T08:01:28.142Z,708.0000
2023-05-10T08:02:30.343Z,744.2308
2023-05-10T08:03:32.487Z,779.9231
2023-05-10T08:04:34.322Z,734.0769
2023-05-10T08:05:36.349Z,730.6923
2023-05-10T08:06:38.399Z,737.5385
2023-05-10T08:07:40.412Z,733.3077
2023-05-10T08:08:42.543Z,715.7692
2023-05-10T08:09:44.532Z,719.4615
2023-05-10T08:10:46.603Z,714.5385
2023-05-10T08:11:49.113Z,713.4615
2023-05-10T08:12:50.769Z,722.8461
2023-05-10T08:13:53.495Z,711.3846
2023-05-10T08:14:56.488Z,709.6923
2023-05-10T08:15:57.082Z,704.7692
2023-05-10T08:17:11.632Z,711.1539
2023-05-10T08:18:00.973Z,706.4445
2023-05-10T08:19:04.319Z,714.8461
2023-05-10T08:20:05.339Z,703.3333
2023-05-10T08:21:07.051Z,695.0000
2023-05-10T08:22:09.087Z,695.0769
2023-05-10T08:23:11.120Z,694.0000
2023-05-10T08:24:13.280Z,698.0000
2023-05-10T08:25:18.155Z,692.0000
2023-05-10T08:26:17.276Z,689.1667
2023-05-10T08:27:19.460Z,691.3846
2023-05-10T08:28:21.461Z,696.3846
2023-05-10T08:29:23.366Z,700.7692
2023-05-10T08:30:25.453Z,690.0769
2023-05-10T08:31:27.894Z,694.8461
2023-05-10T08:32:29.556Z,698.9231
2023-05-10T08:33:31.608Z,700.3077
2023-05-10T08:34:34.541Z,718.7692
2023-05-10T08:35:35.768Z,719.5385
2023-05-10T08:36:37.783Z,719.0000
2023-05-10T08:37:40.228Z,747.1539
2023-05-10T08:38:41.872Z,732.7692
2023-05-10T08:39:43.950Z,737.0769
2023-05-10T08:40:46.132Z,741.7692
2023-05-10T08:41:49.004Z,778.0000
2023-05-10T08:42:50.220Z,781.7692
2023-05-10T08:43:55.109Z,737.3077
2023-05-10T08:44:54.182Z,697.0769
2023-05-10T08:45:56.244Z,693.3077
2023-05-10T08:46:58.268Z,694.3846
2023-05-10T08:48:00.440Z,723.7692
2023-05-10T08:49:02.342Z,719.4615
2023-05-10T08:50:04.377Z,735.9231
2023-05-10T08:51:06.552Z,745.6923
2023-05-10T08:52:08.609Z,732.1539
2023-05-10T08:53:10.702Z,716.5385
2023-05-10T08:54:12.553Z,720.3077
2023-05-10T08:55:14.739Z,729.9231
2023-05-10T08:56:16.730Z,760.0000
2023-05-10T08:57:18.755Z,770.3077
2023-05-10T08:58:20.802Z,771.1539
2023-05-10T08:59:22.919Z,773.1539
2023-05-10T09:00:26.097Z,768.3846
2023-05-10T09:01:29.603Z,730.7692
2023-05-10T09:02:29.566Z,727.0769
2023-05-10T09:03:30.947Z,734.6154
2023-05-10T09:04:33.052Z,736.0000
2023-05-10T09:05:37.124Z,746.4615
2023-05-10T09:06:38.033Z,749.3846
2023-05-10T09:07:40.217Z,747.0000
2023-05-10T09:08:41.188Z,745.2308
2023-05-10T09:09:44.626Z,744.5385
2023-05-10T09:10:49.222Z,747.7500
2023-05-10T09:11:47.361Z,741.8461
2023-05-10T09:13:05.114Z,735.4615
2023-05-10T09:13:52.215Z,739.6667
2023-05-10T09:14:53.457Z,744.5385
2023-05-10T09:16:00.328Z,750.3333
2023-05-10T09:16:57.612Z,746.5000
2023-05-10T09:18:01.499Z,750.3846
2023-05-10T09:19:01.665Z,756.2308
2023-05-10T09:20:03.729Z,780.0769
2023-05-10T09:21:05.714Z,751.6923
2023-05-10T09:22:08.579Z,740.1539
2023-05-10T09:23:09.805Z,742.9231
2023-05-10T09:24:11.846Z,737.3846
2023-05-10T09:25:14.801Z,733.6923
2023-05-10T09:26:15.984Z,740.7692
2023-05-10T09:27:17.995Z,730.3846
2023-05-10T09:28:20.114Z,714.7692
2023-05-10T09:29:22.130Z,704.6923
2023-05-10T09:30:24.274Z,703.7692
2023-05-10T09:31:26.359Z,702.3077
2023-05-10T09:32:28.310Z,698.6154
2023-05-10T09:33:30.291Z,699.0769
2023-05-10T09:34:35.666Z,708.5385
2023-05-10T09:35:34.354Z,710.9231
2023-05-10T09:36:36.389Z,718.4615
2023-05-10T09:37:39.016Z,714.6154
2023-05-10T09:38:40.472Z,710.8461
2023-05-10T09:39:42.534Z,716.3077
2023-05-10T09:40:44.656Z,720.0769
2023-05-10T09:41:46.587Z,733.8461
2023-05-10T09:42:48.653Z,739.9231
2023-05-10T09:43:50.661Z,728.8461
2023-05-10T09:44:52.732Z,728.3077
2023-05-10T09:45:54.866Z,730.0769
2023-05-10T09:46:57.377Z,728.8461
2023-05-10T09:47:58.951Z,728.2308
2023-05-10T09:49:00.927Z,728.6154
2023-05-10T09:50:02.928Z,757.2308
2023-05-10T09:51:05.083Z,774.3846
2023-05-10T09:52:07.116Z,770.4615
2023-05-10T09:53:09.057Z,783.0000
2023-05-10T09:54:11.134Z,814.4615
2023-05-10T09:55:13.157Z,813.0769
2023-05-10T09:56:15.222Z,781.3846
2023-05-10T09:57:17.264Z,784.8461
2023-05-10T09:58:19.416Z,770.6154
2023-05-10T09:59:21.299Z,773.9231
2023-05-10T10:00:23.430Z,803.7692
2023-05-10T10:01:25.473Z,773.6923
2023-05-10T10:02:27.521Z,772.0769
2023-05-10T10:03:30.413Z,787.0000
2023-05-10T10:04:31.684Z,804.8461
2023-05-10T10:05:33.614Z,803.6923
2023-05-10T10:06:35.635Z,801.9231
2023-05-10T10:07:37.686Z,813.9231
2023-05-10T10:08:39.737Z,812.9231
2023-05-10T10:09:41.785Z,785.1539
2023-05-10T10:10:43.798Z,763.1539
2023-05-10T10:11:46.106Z,717.6923
2023-05-10T10:12:47.921Z,710.6154
2023-05-10T10:13:49.971Z,736.3846
2023-05-10T10:14:51.982Z,759.4615
2023-05-10T10:15:54.075Z,747.1539
2023-05-10T10:17:06.407Z,712.3846
2023-05-10T10:17:58.143Z,697.2308
2023-05-10T10:19:00.438Z,693.6154
2023-05-10T10:20:02.192Z,701.4615
2023-05-10T10:21:04.417Z,730.4615
2023-05-10T10:22:06.309Z,715.8461
2023-05-10T10:23:08.294Z,714.3846
2023-05-10T10:24:10.394Z,727.0000
2023-05-10T10:25:12.402Z,737.5385
2023-05-10T10:26:14.429Z,742.5385
2023-05-10T10:27:16.541Z,734.8461
2023-05-10T10:28:18.853Z,756.2308
2023-05-10T10:29:20.561Z,752.9231
2023-05-10T10:30:22.622Z,753.5385
2023-05-10T10:31:24.697Z,753.0000
2023-05-10T10:32:26.782Z,746.0769
2023-05-10T10:33:29.252Z,737.3846
2023-05-10T10:34:30.816Z,726.0769
2023-05-10T10:35:32.879Z,731.0769
2023-05-10T10:36:34.931Z,727.8461
2023-05-10T10:37:37.028Z,731.0000
2023-05-10T10:38:39.066Z,726.3846
2023-05-10T10:39:41.031Z,723.5385
2023-05-10T10:40:43.069Z,729.4615
2023-05-10T10:41:45.141Z,738.6923
2023-05-10T10:42:47.187Z,736.9231
2023-05-10T10:43:49.206Z,732.1539
2023-05-10T10:44:51.251Z,737.0769
2023-05-10T10:45:53.302Z,767.3846
2023-05-10T10:46:55.361Z,747.5385
2023-05-10T10:47:57.474Z,733.9231
2023-05-10T10:48:59.484Z,727.3846
2023-05-10T10:50:01.592Z,718.4615
2023-05-10T10:51:03.523Z,730.9231
2023-05-10T10:52:05.580Z,729.6923
2023-05-10T10:53:07.779Z,728.5385
2023-05-10T10:54:09.671Z,725.8461
2023-05-10T10:55:11.753Z,720.9231
2023-05-10T10:56:13.742Z,735.6154
2023-05-10T10:57:15.883Z,763.9231
2023-05-10T10:58:17.842Z,774.2308
2023-05-10T10:59:19.858Z,782.6154
2023-05-10T11:00:21.968Z,818.5385
2023-05-10T11:01:23.998Z,879.0000
2023-05-10T11:02:26.122Z,838.3077
2023-05-10T11:03:28.057Z,776.1539
2023-05-10T11:04:30.155Z,758.6923
2023-05-10T11:05:32.222Z,750.4615
2023-05-10T11:06:34.256Z,748.5385
2023-05-10T11:07:36.208Z,721.3077
2023-05-10T11:08:39.074Z,722.8461
2023-05-10T11:09:40.400Z,733.1539
2023-05-10T11:10:42.328Z,733.1539
2023-05-10T11:11:44.435Z,728.9231
2023-05-10T11:12:46.448Z,723.1539
2023-05-10T11:13:50.955Z,735.0000
2023-05-10T11:14:50.760Z,764.3077
2023-05-10T11:15:52.640Z,764.3077
2023-05-10T11:16:54.688Z,755.0000
2023-05-10T11:17:58.647Z,738.3846
2023-05-10T11:18:58.863Z,751.0000
2023-05-10T11:20:00.802Z,745.3077
2023-05-10T11:21:02.836Z,741.0769
2023-05-10T11:22:04.854Z,752.6154
2023-05-10T11:23:06.908Z,806.5385
2023-05-10T11:24:08.941Z,812.2308
2023-05-10T11:25:11.016Z,802.7692
2023-05-10T11:26:13.557Z,786.6923
2023-05-10T11:27:16.382Z,766.2308
2023-05-10T11:28:17.119Z,748.0000
2023-05-10T11:29:19.172Z,736.7692
2023-05-10T11:30:21.288Z,739.6923
2023-05-10T11:31:23.324Z,733.6923
2023-05-10T11:32:25.382Z,718.6667
2023-05-10T11:33:27.339Z,716.0000
2023-05-10T11:34:29.388Z,715.7692
2023-05-10T11:35:31.447Z,721.9231
2023-05-10T11:36:33.581Z,727.4615
2023-05-10T11:37:35.514Z,727.3846
2023-05-10T11:38:37.685Z,720.6923
2023-05-10T11:39:39.661Z,709.6154
2023-05-10T11:40:41.661Z,703.4615
2023-05-10T11:41:43.731Z,702.6923
2023-05-10T11:42:45.823Z,702.7692
2023-05-10T11:43:47.821Z,697.3077
2023-05-10T11:44:49.851Z,691.3846
2023-05-10T11:45:52.061Z,691.5385
2023-05-10T11:46:53.937Z,700.6923
2023-05-10T11:47:56.045Z,705.6154
2023-05-10T11:48:58.146Z,704.1539
2023-05-10T11:50:00.147Z,707.3846
2023-05-10T11:51:02.267Z,693.5385
2023-05-10T11:52:04.280Z,685.6923
2023-05-10T11:53:06.296Z,698.4615
2023-05-10T11:54:08.284Z,704.3077
2023-05-10T11:55:10.339Z,725.9231
2023-05-10T11:56:12.427Z,822.2308
2023-05-10T11:57:14.408Z,807.2308
2023-05-10T11:58:16.493Z,776.6923
2023-05-10T11:59:18.509Z,766.0769
2023-05-10T12:00:20.594Z,739.6154
2023-05-10T12:01:22.659Z,737.2308
2023-05-10T12:02:24.705Z,757.0000
2023-05-10T12:03:26.809Z,751.8461
2023-05-10T12:04:28.977Z,755.5385
2023-05-10T12:05:30.828Z,758.0000
2023-05-10T12:06:32.987Z,748.3077
2023-05-10T12:07:35.026Z,742.0000
2023-05-10T12:08:36.935Z,733.6154
2023-05-10T12:09:43.828Z,716.0769
2023-05-10T12:10:41.013Z,704.7692
2023-05-10T12:11:44.318Z,701.7692
2023-05-10T12:12:45.494Z,710.6154
2023-05-10T12:13:49.076Z,712.3846
2023-05-10T12:14:49.193Z,706.6154
2023-05-10T12:15:51.269Z,716.0769
2023-05-10T12:16:53.608Z,725.6154
2023-05-10T12:17:55.480Z,726.6154
2023-05-10T12:18:57.448Z,732.0769
2023-05-10T12:19:59.518Z,758.5385
2023-05-10T12:21:01.502Z,784.6154
2023-05-10T12:22:03.565Z,774.5385
2023-05-10T12:23:05.612Z,771.0769
2023-05-10T12:24:10.007Z,769.2308
2023-05-10T12:25:09.681Z,757.3846
2023-05-10T12:26:11.828Z,751.8461
2023-05-10T12:27:13.795Z,750.5385
2023-05-10T12:28:15.810Z,751.5385
2023-05-10T12:29:19.685Z,763.6923
2023-05-10T12:30:20.625Z,771.7500
2023-05-10T12:31:22.049Z,781.0000
2023-05-10T12:32:24.032Z,776.2308
2023-05-10T12:33:26.077Z,751.0000
2023-05-10T12:34:29.610Z,738.6923
2023-05-10T12:35:31.153Z,722.9231
2023-05-10T12:36:32.314Z,720.1539
2023-05-10T12:37:34.271Z,727.1539
2023-05-10T12:38:36.416Z,709.3846
2023-05-10T12:39:38.498Z,718.6923
2023-05-10T12:40:42.223Z,704.9231
2023-05-10T12:41:43.721Z,694.6923
2023-05-10T12:42:45.124Z,692.0000
2023-05-10T12:43:46.670Z,697.9231
2023-05-10T12:44:48.691Z,726.3846
2023-05-10T12:45:50.878Z,739.6923
2023-05-10T12:46:52.749Z,730.8461
2023-05-10T12:47:55.271Z,709.9231
2023-05-10T12:49:08.103Z,707.7692
2023-05-10T12:50:11.143Z,705.3077
2023-05-10T12:51:02.664Z,706.5455
2023-05-10T12:52:03.012Z,707.6667
2023-05-10T12:53:05.036Z,709.0000
2023-05-10T12:54:07.113Z,715.0769
2023-05-10T12:55:09.176Z,720.9231
2023-05-10T12:56:11.272Z,721.0000
2023-05-10T12:57:13.208Z,730.8461
2023-05-10T12:58:27.785Z,738.6154
2023-05-10T12:59:17.375Z,727.6154
2023-05-10T13:00:19.389Z,715.3846
2023-05-10T13:01:21.515Z,701.0000
2023-05-10T13:02:23.498Z,699.6154
2023-05-10T13:03:25.544Z,700.9231
2023-05-10T13:04:27.602Z,712.0000
2023-05-10T13:05:29.587Z,725.4615
2023-05-10T13:06:31.773Z,745.6923
2023-05-10T13:07:33.681Z,761.4615
2023-05-10T13:08:36.293Z,749.6923
2023-05-10T13:09:37.781Z,737.6154
2023-05-10T13:10:39.842Z,740.2308
2023-05-10T13:11:41.848Z,754.0000
2023-05-10T13:12:43.904Z,788.5385
2023-05-10T13:13:45.940Z,758.8461
2023-05-10T13:14:48.009Z,737.0769
2023-05-10T13:15:50.009Z,713.9231
2023-05-10T13:16:52.112Z,706.2308
2023-05-10T13:17:54.157Z,701.5385
2023-05-10T13:18:56.169Z,702.7692
2023-05-10T13:19:58.254Z,710.9231
2023-05-10T13:21:00.240Z,715.0000
2023-05-10T13:22:02.286Z,733.2308
2023-05-10T13:23:04.336Z,745.5385
2023-05-10T13:24:06.437Z,750.4615
2023-05-10T13:25:08.431Z,724.3077
2023-05-10T13:26:11.099Z,711.3846
2023-05-10T13:27:13.098Z,718.2308
2023-05-10T13:28:14.564Z,711.0769
2023-05-10T13:29:16.783Z,705.0000
2023-05-10T13:30:18.858Z,699.6154
2023-05-10T13:31:20.720Z,699.1539
2023-05-10T13:32:22.756Z,690.0769
2023-05-10T13:33:24.822Z,692.3077
2023-05-10T13:34:26.844Z,705.8461
2023-05-10T13:35:30.057Z,718.5385
2023-05-10T13:36:30.971Z,717.6154
2023-05-10T13:37:32.951Z,700.4615
2023-05-10T13:38:35.020Z,674.7692
2023-05-10T13:39:37.053Z,668.1539
2023-05-10T13:40:39.166Z,667.5385
2023-05-10T13:41:41.146Z,671.0769
2023-05-10T13:42:43.221Z,675.9231
2023-05-10T13:43:45.295Z,671.9231
2023-05-10T13:44:47.326Z,674.3077
2023-05-10T13:45:49.360Z,662.3846
2023-05-10T13:46:52.261Z,670.0769
2023-05-10T13:47:53.868Z,689.5385
2023-05-10T13:48:55.492Z,697.0769
2023-05-10T13:49:59.151Z,705.5385
2023-05-10T13:50:59.550Z,736.6923
2023-05-10T13:52:01.624Z,727.9231
2023-05-10T13:53:03.678Z,725.9231
2023-05-10T13:54:05.734Z,738.0769
2023-05-10T13:55:07.913Z,748.3077
2023-05-10T13:56:41.270Z,731.7692
2023-05-10T13:57:16.248Z,701.0000
2023-05-10T13:58:16.117Z,715.5385
2023-05-10T13:59:16.038Z,713.0000
2023-05-10T14:00:18.008Z,705.3846
2023-05-10T14:01:20.194Z,705.6923
2023-05-10T14:02:22.284Z,712.0000
2023-05-10T14:03:24.275Z,711.1539
2023-05-10T14:04:26.226Z,702.0769
2023-05-10T14:05:28.469Z,698.0769
2023-05-10T14:06:30.236Z,697.6154
2023-05-10T14:07:32.281Z,696.7692
2023-05-10T14:08:34.371Z,716.0000
2023-05-10T14:09:36.385Z,724.6923
2023-05-10T14:10:40.255Z,759.0769
2023-05-10T14:11:40.525Z,770.4615
2023-05-10T14:12:42.528Z,790.6923
2023-05-10T14:13:44.578Z,761.3846
2023-05-10T14:14:47.318Z,744.0769
2023-05-10T14:15:48.648Z,745.0833
2023-05-10T14:16:50.910Z,739.2308
2023-05-10T14:17:52.797Z,714.3077
2023-05-10T14:18:54.796Z,720.3077
2023-05-10T14:19:56.853Z,738.9231
2023-05-10T14:20:59.353Z,736.3846
2023-05-10T14:22:00.948Z,730.7692
2023-05-10T14:23:02.965Z,735.0769
2023-05-10T14:24:04.981Z,739.9231
2023-05-10T14:25:07.623Z,747.5385
2023-05-10T14:26:09.318Z,758.3846
2023-05-10T14:27:11.321Z,768.4615
2023-05-10T14:28:13.284Z,784.6923
2023-05-10T14:29:15.200Z,754.1539
2023-05-10T14:30:17.309Z,752.4615
2023-05-10T14:31:19.744Z,752.4615
2023-05-10T14:32:21.424Z,741.7692
2023-05-10T14:33:23.627Z,731.6154
2023-05-10T14:34:25.519Z,714.9231
2023-05-10T14:35:27.473Z,717.3846
2023-05-10T14:36:31.207Z,753.5385
2023-05-10T14:37:31.639Z,794.6154
2023-05-10T14:38:33.660Z,796.9231
2023-05-10T14:39:35.689Z,768.6154
2023-05-10T14:40:37.720Z,748.0769
2023-05-10T14:41:42.662Z,746.5385
2023-05-10T14:42:41.761Z,743.5000
2023-05-10T14:43:43.822Z,743.7692
2023-05-10T14:44:45.881Z,742.3846
2023-05-10T14:45:47.950Z,740.4615
2023-05-10T14:46:50.076Z,753.0000
2023-05-10T14:47:53.764Z,741.8461
2023-05-10T14:48:54.062Z,737.6923
2023-05-10T14:49:56.089Z,734.3077
2023-05-10T14:50:58.172Z,732.3846
2023-05-10T14:52:00.367Z,726.4615
2023-05-10T14:53:03.728Z,736.3077
2023-05-10T14:54:04.285Z,748.9231
2023-05-10T14:55:06.930Z,742.0000
2023-05-10T14:56:08.402Z,735.6923
2023-05-10T14:57:10.396Z,733.5385
2023-05-10T14:58:12.507Z,716.2308
2023-05-10T14:59:14.515Z,717.5385
2023-05-10T15:00:16.772Z,720.0769
2023-05-10T15:01:18.582Z,747.0769
2023-05-10T15:02:20.709Z,763.0769
2023-05-10T15:03:22.820Z,753.2308
2023-05-10T15:04:25.964Z,807.5385
2023-05-10T15:05:26.857Z,812.7692
2023-05-10T15:06:28.777Z,811.6154
2023-05-10T15:07:30.986Z,790.9231
2023-05-10T15:08:32.920Z,773.7692
2023-05-10T15:09:34.913Z,762.5385
2023-05-10T15:10:36.926Z,757.2308
2023-05-10T15:11:39.071Z,754.3077
2023-05-10T15:12:41.045Z,750.0769
2023-05-10T15:13:43.090Z,748.6154
2023-05-10T15:14:45.102Z,753.0000
2023-05-10T15:15:47.204Z,763.3846
2023-05-10T15:16:49.212Z,771.3077
2023-05-10T15:17:51.425Z,775.8461
2023-05-10T15:18:53.364Z,767.3846
2023-05-10T15:19:55.358Z,768.6154
2023-05-10T15:20:57.458Z,771.8461
2023-05-10T15:21:59.524Z,770.4615
2023-05-10T15:23:01.503Z,762.3846
2023-05-10T15:24:03.526Z,749.9231
2023-05-10T15:25:05.624Z,734.5385
2023-05-10T15:26:07.667Z,734.0769
2023-05-10T15:27:09.693Z,736.5385
2023-05-10T15:28:12.661Z,731.7692
2023-05-10T15:29:13.736Z,729.5385
2023-05-10T15:30:15.851Z,729.1539
2023-05-10T15:31:17.857Z,722.0769
2023-05-10T15:32:19.910Z,723.6154
2023-05-10T15:33:22.608Z,728.0000
2023-05-10T15:34:24.029Z,711.0769
2023-05-10T15:35:26.516Z,712.9231
2023-05-10T15:36:28.063Z,713.7692
2023-05-10T15:37:30.117Z,722.3846
2023-05-10T15:38:32.129Z,725.6154
2023-05-10T15:39:34.209Z,734.4615
2023-05-10T15:40:36.241Z,734.2308
2023-05-10T15:41:38.271Z,744.0000
2023-05-10T15:42:40.346Z,731.8461
2023-05-10T15:43:42.571Z,736.8461
2023-05-10T15:44:44.461Z,740.6923
2023-05-10T15:45:46.454Z,744.4615
2023-05-10T15:46:49.438Z,743.5385
2023-05-10T15:47:50.624Z,747.0000
2023-05-10T15:48:52.656Z,748.4615
2023-05-10T15:49:55.071Z,748.4615
2023-05-10T15:50:56.740Z,744.4615
2023-05-10T15:51:58.709Z,742.4615
2023-05-10T15:53:00.934Z,751.6154
2023-05-10T15:54:07.625Z,757.0000
2023-05-10T15:55:04.921Z,769.0000
2023-05-10T15:56:06.917Z,770.3077
2023-05-10T15:57:09.024Z,768.4615
2023-05-10T15:58:13.618Z,779.6154
2023-05-10T15:59:13.035Z,780.3077
2023-05-10T16:00:15.104Z,774.3077
2023-05-10T16:01:17.202Z,768.4615
2023-05-10T16:02:19.241Z,757.2308
2023-05-10T16:03:21.259Z,752.5385
2023-05-10T16:04:23.274Z,736.7692
2023-05-10T16:05:25.346Z,714.4615
2023-05-10T16:06:27.417Z,703.6923
2023-05-10T16:07:29.588Z,703.0769
2023-05-10T16:08:36.697Z,706.3077
2023-05-10T16:09:33.629Z,713.5385
2023-05-10T16:10:35.565Z,715.0769
2023-05-10T16:11:37.785Z,736.3077
2023-05-10T16:12:39.726Z,740.0000
2023-05-10T16:13:41.711Z,759.2308
2023-05-10T16:14:43.740Z,765.8461
2023-05-10T16:15:45.927Z,769.3846
2023-05-10T16:16:47.924Z,787.5385
2023-05-10T16:17:50.108Z,783.3077
2023-05-10T16:18:52.242Z,762.6923
2023-05-10T16:19:54.005Z,742.3077
2023-05-10T16:20:56.023Z,735.8461
2023-05-10T16:21:58.490Z,767.7692
2023-05-10T16:23:00.127Z,785.3846
2023-05-10T16:24:02.177Z,767.7692
2023-05-10T16:25:04.211Z,764.0000
2023-05-10T16:26:06.267Z,814.3077
2023-05-10T16:27:08.278Z,772.6154
2023-05-10T16:28:10.420Z,768.3077
2023-05-10T16:29:12.410Z,759.9231
2023-05-10T16:30:14.408Z,748.3846
2023-05-10T16:31:16.464Z,740.3077
2023-05-10T16:32:18.524Z,744.3077
2023-05-10T16:33:20.630Z,742.8461
2023-05-10T16:34:22.596Z,748.2308
2023-05-10T16:35:24.654Z,750.3077
2023-05-10T16:36:26.892Z,748.7692
2023-05-10T16:37:28.838Z,741.3077
2023-05-10T16:38:30.754Z,731.7692
2023-05-10T16:39:32.833Z,720.6923